Birch Bay, Washington
Current Conditions -  °F | °C
As of 9:19 PM on Friday 28 Nov 2014 (Local Time) from KBLI Reporting Station
Overcast Overcast  
Wind Chill: 30°   Ceiling: 400
Heat Index: 34°   Visibility: 9mi
Dew Point: 30°   Wind: 5mph
Humidity: 87%   Direction: 340°NNW
Pressure: 29.48"   Gusts: NA
Location:  48.9504°N, 122.711°W
Report Text: KBLI 290519Z AUTO 34004KT 9SM BKN004 BKN013 OVC039 01/M01 A2948 RMK AO2 CIG 003V006
Loading
Personal Weather Stations






























Interactive Weather Map New forecast layout! Learn more

10-Day Weather Forecast

Advertisements
Track Severe Weather on mobile